sensor_id;sensor_type;location;lat;lon;timestamp;temperature;humidity
25923;DHT22;13725;51.170;4.442;2024-03-02T00:02:19;7.20;99.90
25923;DHT22;13725;51.170;4.442;2024-03-02T00:04:45;7.40;99.90
25923;DHT22;13725;51.170;4.442;2024-03-02T00:07:14;7.30;99.90
25923;DHT22;13725;51.170;4.442;2024-03-02T00:09:40;7.30;99.90
25923;DHT22;13725;51.170;4.442;2024-03-02T00:12:06;7.30;99.90
25923;DHT22;13725;51.170;4.442;2024-03-02T00:14:32;7.20;99.90
25923;DHT22;13725;51.170;4.442;2024-03-02T00:16:59;7.20;99.90
25923;DHT22;13725;51.170;4.442;2024-03-02T00:19:24;7.30;99.90
25923;DHT22;13725;51.170;4.442;2024-03-02T00:21:50;7.20;99.90
25923;DHT22;13725;51.170;4.442;2024-03-02T00:24:33;7.20;99.90
25923;DHT22;13725;51.170;4.442;2024-03-02T00:26:59;7.10;99.90
25923;DHT22;13725;51.170;4.442;2024-03-02T00:29:25;7.10;99.90
25923;DHT22;13725;51.170;4.442;2024-03-02T00:31:52;7.00;99.90
25923;DHT22;13725;51.170;4.442;2024-03-02T00:34:19;7.10;99.90
25923;DHT22;13725;51.170;4.442;2024-03-02T00:36:45;7.00;99.90
25923;DHT22;13725;51.170;4.442;2024-03-02T00:39:12;7.10;99.90
25923;DHT22;13725;51.170;4.442;2024-03-02T00:41:41;7.00;99.90
25923;DHT22;13725;51.170;4.442;2024-03-02T00:44:13;6.90;99.90
25923;DHT22;13725;51.170;4.442;2024-03-02T00:46:41;6.90;99.90
25923;DHT22;13725;51.170;4.442;2024-03-02T00:49:23;6.90;99.90
25923;DHT22;13725;51.170;4.442;2024-03-02T00:51:51;7.00;99.90
25923;DHT22;13725;51.170;4.442;2024-03-02T00:56:47;6.90;99.90
25923;DHT22;13725;51.170;4.442;2024-03-02T00:59:14;6.90;99.90
25923;DHT22;13725;51.170;4.442;2024-03-02T01:01:39;7.10;99.90
25923;DHT22;13725;51.170;4.442;2024-03-02T01:04:05;7.00;99.90
25923;DHT22;13725;51.170;4.442;2024-03-02T01:06:31;7.00;99.90
25923;DHT22;13725;51.170;4.442;2024-03-02T01:08:56;7.00;99.90
25923;DHT22;13725;51.170;4.442;2024-03-02T01:11:22;7.00;99.90
25923;DHT22;13725;51.170;4.442;2024-03-02T01:13:48;7.00;99.90
25923;DHT22;13725;51.170;4.442;2024-03-02T01:16:14;7.00;99.90
25923;DHT22;13725;51.170;4.442;2024-03-02T01:18:41;7.10;99.90
25923;DHT22;13725;51.170;4.442;2024-03-02T01:21:07;7.00;99.90
25923;DHT22;13725;51.170;4.442;2024-03-02T01:23:32;7.00;99.90
25923;DHT22;13725;51.170;4.442;2024-03-02T01:25:58;7.00;99.90
25923;DHT22;13725;51.170;4.442;2024-03-02T01:28:24;7.20;99.90
25923;DHT22;13725;51.170;4.442;2024-03-02T01:30:50;7.20;99.90
25923;DHT22;13725;51.170;4.442;2024-03-02T01:33:17;7.10;99.90
25923;DHT22;13725;51.170;4.442;2024-03-02T01:35:43;7.10;99.90
25923;DHT22;13725;51.170;4.442;2024-03-02T01:38:09;7.10;99.90
25923;DHT22;13725;51.170;4.442;2024-03-02T01:40:35;7.20;99.90
25923;DHT22;13725;51.170;4.442;2024-03-02T01:43:01;7.10;99.90
25923;DHT22;13725;51.170;4.442;2024-03-02T01:45:28;7.00;99.90
25923;DHT22;13725;51.170;4.442;2024-03-02T01:47:54;6.90;99.90
25923;DHT22;13725;51.170;4.442;2024-03-02T01:50:27;6.90;99.90
25923;DHT22;13725;51.170;4.442;2024-03-02T01:52:53;6.90;99.90
25923;DHT22;13725;51.170;4.442;2024-03-02T01:55:19;6.90;99.90
25923;DHT22;13725;51.170;4.442;2024-03-02T01:57:44;7.00;99.90
25923;DHT22;13725;51.170;4.442;2024-03-02T02:00:11;6.90;99.90
25923;DHT22;13725;51.170;4.442;2024-03-02T02:02:37;6.90;99.90
25923;DHT22;13725;51.170;4.442;2024-03-02T02:05:03;6.90;99.90
25923;DHT22;13725;51.170;4.442;2024-03-02T02:07:29;7.00;99.90
25923;DHT22;13725;51.170;4.442;2024-03-02T02:09:55;7.00;99.90
25923;DHT22;13725;51.170;4.442;2024-03-02T02:12:21;7.00;99.90
25923;DHT22;13725;51.170;4.442;2024-03-02T02:14:50;7.00;99.90
25923;DHT22;13725;51.170;4.442;2024-03-02T02:17:16;6.90;99.90
25923;DHT22;13725;51.170;4.442;2024-03-02T02:19:42;6.90;99.90
25923;DHT22;13725;51.170;4.442;2024-03-02T02:22:09;7.00;99.90
25923;DHT22;13725;51.170;4.442;2024-03-02T02:24:35;6.80;99.90
25923;DHT22;13725;51.170;4.442;2024-03-02T02:27:00;6.90;99.90
25923;DHT22;13725;51.170;4.442;2024-03-02T02:29:26;6.90;99.90
25923;DHT22;13725;51.170;4.442;2024-03-02T02:31:52;6.90;99.90
25923;DHT22;13725;51.170;4.442;2024-03-02T02:34:18;7.00;99.90
25923;DHT22;13725;51.170;4.442;2024-03-02T02:36:44;6.90;99.90
25923;DHT22;13725;51.170;4.442;2024-03-02T02:39:13;7.00;99.90
25923;DHT22;13725;51.170;4.442;2024-03-02T02:41:40;7.00;99.90
25923;DHT22;13725;51.170;4.442;2024-03-02T02:44:06;6.90;99.90
25923;DHT22;13725;51.170;4.442;2024-03-02T02:46:32;7.00;99.90
25923;DHT22;13725;51.170;4.442;2024-03-02T02:48:57;6.90;99.90
25923;DHT22;13725;51.170;4.442;2024-03-02T02:51:23;7.10;99.90
25923;DHT22;13725;51.170;4.442;2024-03-02T02:53:51;7.00;99.90
25923;DHT22;13725;51.170;4.442;2024-03-02T02:56:16;7.00;99.90
25923;DHT22;13725;51.170;4.442;2024-03-02T02:58:42;7.10;99.90
25923;DHT22;13725;51.170;4.442;2024-03-02T03:01:08;7.00;99.90
25923;DHT22;13725;51.170;4.442;2024-03-02T03:03:34;7.00;99.90
25923;DHT22;13725;51.170;4.442;2024-03-02T03:06:00;7.00;99.90
25923;DHT22;13725;51.170;4.442;2024-03-02T03:08:25;7.00;99.90
25923;DHT22;13725;51.170;4.442;2024-03-02T03:10:51;7.00;99.90
25923;DHT22;13725;51.170;4.442;2024-03-02T03:13:17;7.00;99.90
25923;DHT22;13725;51.170;4.442;2024-03-02T03:15:43;7.10;99.90
25923;DHT22;13725;51.170;4.442;2024-03-02T03:18:09;7.10;99.90
25923;DHT22;13725;51.170;4.442;2024-03-02T03:20:36;7.20;99.90
25923;DHT22;13725;51.170;4.442;2024-03-02T03:23:02;7.10;99.90
25923;DHT22;13725;51.170;4.442;2024-03-02T03:25:29;7.00;99.90
25923;DHT22;13725;51.170;4.442;2024-03-02T03:27:55;7.30;99.90
25923;DHT22;13725;51.170;4.442;2024-03-02T03:30:21;7.20;99.90
25923;DHT22;13725;51.170;4.442;2024-03-02T03:32:48;7.30;99.90
25923;DHT22;13725;51.170;4.442;2024-03-02T03:35:14;7.20;99.90
25923;DHT22;13725;51.170;4.442;2024-03-02T03:37:41;7.20;99.90
25923;DHT22;13725;51.170;4.442;2024-03-02T03:40:07;7.20;99.90
25923;DHT22;13725;51.170;4.442;2024-03-02T03:42:36;7.20;99.90
25923;DHT22;13725;51.170;4.442;2024-03-02T03:45:02;7.30;99.90
25923;DHT22;13725;51.170;4.442;2024-03-02T03:47:28;7.20;99.90
25923;DHT22;13725;51.170;4.442;2024-03-02T03:49:54;7.20;99.90
25923;DHT22;13725;51.170;4.442;2024-03-02T03:52:20;7.10;99.90
25923;DHT22;13725;51.170;4.442;2024-03-02T03:54:46;7.30;99.90
25923;DHT22;13725;51.170;4.442;2024-03-02T03:57:12;7.10;99.90
25923;DHT22;13725;51.170;4.442;2024-03-02T03:59:38;7.10;99.90
25923;DHT22;13725;51.170;4.442;2024-03-02T04:02:04;7.00;99.90
25923;DHT22;13725;51.170;4.442;2024-03-02T04:04:30;7.00;99.90
25923;DHT22;13725;51.170;4.442;2024-03-02T04:06:55;6.80;99.90
25923;DHT22;13725;51.170;4.442;2024-03-02T04:09:21;6.80;99.90
25923;DHT22;13725;51.170;4.442;2024-03-02T04:11:47;7.00;99.90
25923;DHT22;13725;51.170;4.442;2024-03-02T04:14:13;6.90;99.90
25923;DHT22;13725;51.170;4.442;2024-03-02T04:16:38;6.90;99.90
25923;DHT22;13725;51.170;4.442;2024-03-02T04:19:04;7.00;99.90
25923;DHT22;13725;51.170;4.442;2024-03-02T04:21:30;6.90;99.90
25923;DHT22;13725;51.170;4.442;2024-03-02T04:23:56;7.00;99.90
25923;DHT22;13725;51.170;4.442;2024-03-02T04:26:25;7.20;99.90
25923;DHT22;13725;51.170;4.442;2024-03-02T04:28:52;7.20;99.90
25923;DHT22;13725;51.170;4.442;2024-03-02T04:31:17;7.00;99.90
25923;DHT22;13725;51.170;4.442;2024-03-02T04:33:43;6.90;99.90
25923;DHT22;13725;51.170;4.442;2024-03-02T04:36:09;7.00;99.90
25923;DHT22;13725;51.170;4.442;2024-03-02T04:38:35;7.00;99.90
25923;DHT22;13725;51.170;4.442;2024-03-02T04:41:01;6.90;99.90
25923;DHT22;13725;51.170;4.442;2024-03-02T04:43:27;6.70;99.90
25923;DHT22;13725;51.170;4.442;2024-03-02T04:45:53;6.70;99.90
25923;DHT22;13725;51.170;4.442;2024-03-02T04:48:18;6.60;99.90
25923;DHT22;13725;51.170;4.442;2024-03-02T04:50:44;6.50;99.90
25923;DHT22;13725;51.170;4.442;2024-03-02T04:53:10;6.60;99.90
25923;DHT22;13725;51.170;4.442;2024-03-02T04:55:36;6.70;99.90
25923;DHT22;13725;51.170;4.442;2024-03-02T04:58:04;6.70;99.90
25923;DHT22;13725;51.170;4.442;2024-03-02T05:00:30;6.80;99.90
25923;DHT22;13725;51.170;4.442;2024-03-02T05:02:56;6.80;99.90
25923;DHT22;13725;51.170;4.442;2024-03-02T05:05:22;6.70;99.90
25923;DHT22;13725;51.170;4.442;2024-03-02T05:07:48;6.80;99.90
25923;DHT22;13725;51.170;4.442;2024-03-02T05:10:13;6.70;99.90
25923;DHT22;13725;51.170;4.442;2024-03-02T05:12:39;6.60;99.90
25923;DHT22;13725;51.170;4.442;2024-03-02T05:15:12;6.70;99.90
25923;DHT22;13725;51.170;4.442;2024-03-02T05:17:40;6.60;99.90
25923;DHT22;13725;51.170;4.442;2024-03-02T05:20:07;6.50;99.90
25923;DHT22;13725;51.170;4.442;2024-03-02T05:22:36;6.50;99.90
25923;DHT22;13725;51.170;4.442;2024-03-02T05:25:03;6.30;99.90
25923;DHT22;13725;51.170;4.442;2024-03-02T05:27:29;6.40;99.90
25923;DHT22;13725;51.170;4.442;2024-03-02T05:29:55;6.40;99.90
25923;DHT22;13725;51.170;4.442;2024-03-02T05:32:21;6.50;99.90
25923;DHT22;13725;51.170;4.442;2024-03-02T05:34:47;6.50;99.90
25923;DHT22;13725;51.170;4.442;2024-03-02T05:37:12;6.10;99.90
25923;DHT22;13725;51.170;4.442;2024-03-02T05:39:38;6.10;99.90
25923;DHT22;13725;51.170;4.442;2024-03-02T05:42:04;6.00;99.90
25923;DHT22;13725;51.170;4.442;2024-03-02T05:44:30;6.00;99.90
25923;DHT22;13725;51.170;4.442;2024-03-02T05:46:56;5.90;99.90
25923;DHT22;13725;51.170;4.442;2024-03-02T05:49:21;5.90;99.90
25923;DHT22;13725;51.170;4.442;2024-03-02T05:51:48;6.00;99.90
25923;DHT22;13725;51.170;4.442;2024-03-02T05:54:13;5.90;99.90
25923;DHT22;13725;51.170;4.442;2024-03-02T05:56:39;5.90;99.90
25923;DHT22;13725;51.170;4.442;2024-03-02T05:59:05;5.70;99.90
25923;DHT22;13725;51.170;4.442;2024-03-02T06:01:45;5.70;99.90
25923;DHT22;13725;51.170;4.442;2024-03-02T06:04:17;5.70;99.90
25923;DHT22;13725;51.170;4.442;2024-03-02T06:06:44;5.70;99.90
25923;DHT22;13725;51.170;4.442;2024-03-02T06:09:09;6.00;99.90
25923;DHT22;13725;51.170;4.442;2024-03-02T06:11:39;5.80;99.90
25923;DHT22;13725;51.170;4.442;2024-03-02T06:14:06;5.90;99.90
25923;DHT22;13725;51.170;4.442;2024-03-02T06:16:33;5.70;99.90
25923;DHT22;13725;51.170;4.442;2024-03-02T06:18:59;5.70;99.90
25923;DHT22;13725;51.170;4.442;2024-03-02T06:21:25;5.70;99.90
25923;DHT22;13725;51.170;4.442;2024-03-02T06:23:50;5.70;99.90
25923;DHT22;13725;51.170;4.442;2024-03-02T06:26:16;5.70;99.90
25923;DHT22;13725;51.170;4.442;2024-03-02T06:28:42;5.70;99.90
25923;DHT22;13725;51.170;4.442;2024-03-02T06:31:08;5.60;99.90
25923;DHT22;13725;51.170;4.442;2024-03-02T06:33:34;5.50;99.90
25923;DHT22;13725;51.170;4.442;2024-03-02T06:36:00;5.50;99.90
25923;DHT22;13725;51.170;4.442;2024-03-02T06:38:26;5.60;99.90
25923;DHT22;13725;51.170;4.442;2024-03-02T06:40:52;5.80;99.90
25923;DHT22;13725;51.170;4.442;2024-03-02T06:43:18;5.70;99.90
25923;DHT22;13725;51.170;4.442;2024-03-02T06:45:43;5.60;99.90
25923;DHT22;13725;51.170;4.442;2024-03-02T06:48:09;5.70;99.90
25923;DHT22;13725;51.170;4.442;2024-03-02T06:50:35;5.70;99.90
25923;DHT22;13725;51.170;4.442;2024-03-02T06:53:01;5.50;99.90
25923;DHT22;13725;51.170;4.442;2024-03-02T06:55:29;5.60;99.90
25923;DHT22;13725;51.170;4.442;2024-03-02T06:57:55;5.50;99.90
25923;DHT22;13725;51.170;4.442;2024-03-02T07:00:21;5.70;99.90
25923;DHT22;13725;51.170;4.442;2024-03-02T07:02:46;5.50;99.90
25923;DHT22;13725;51.170;4.442;2024-03-02T07:05:13;5.80;99.90
25923;DHT22;13725;51.170;4.442;2024-03-02T07:07:38;5.70;99.90
25923;DHT22;13725;51.170;4.442;2024-03-02T07:10:05;5.90;99.90
25923;DHT22;13725;51.170;4.442;2024-03-02T07:12:31;6.30;99.90
25923;DHT22;13725;51.170;4.442;2024-03-02T07:14:57;6.90;99.90
25923;DHT22;13725;51.170;4.442;2024-03-02T07:17:29;7.40;99.90
25923;DHT22;13725;51.170;4.442;2024-03-02T07:19:54;7.50;99.90
25923;DHT22;13725;51.170;4.442;2024-03-02T07:22:20;7.30;99.90
25923;DHT22;13725;51.170;4.442;2024-03-02T07:24:46;7.10;99.90
25923;DHT22;13725;51.170;4.442;2024-03-02T07:27:12;7.10;99.90
25923;DHT22;13725;51.170;4.442;2024-03-02T07:29:39;7.10;99.90
25923;DHT22;13725;51.170;4.442;2024-03-02T07:32:06;7.20;99.90
25923;DHT22;13725;51.170;4.442;2024-03-02T07:34:32;7.30;99.90
25923;DHT22;13725;51.170;4.442;2024-03-02T07:36:58;7.20;99.90
25923;DHT22;13725;51.170;4.442;2024-03-02T07:39:24;7.20;99.90
25923;DHT22;13725;51.170;4.442;2024-03-02T07:41:50;7.10;99.90
25923;DHT22;13725;51.170;4.442;2024-03-02T07:44:16;7.10;99.90
25923;DHT22;13725;51.170;4.442;2024-03-02T07:46:45;7.30;99.90
25923;DHT22;13725;51.170;4.442;2024-03-02T07:49:12;7.70;99.90
25923;DHT22;13725;51.170;4.442;2024-03-02T07:51:42;7.90;99.90
25923;DHT22;13725;51.170;4.442;2024-03-02T07:54:08;7.90;99.90
25923;DHT22;13725;51.170;4.442;2024-03-02T07:56:34;8.20;99.90
25923;DHT22;13725;51.170;4.442;2024-03-02T07:59:00;8.20;99.90
25923;DHT22;13725;51.170;4.442;2024-03-02T08:01:31;8.40;99.90
25923;DHT22;13725;51.170;4.442;2024-03-02T08:03:58;8.90;99.90
25923;DHT22;13725;51.170;4.442;2024-03-02T08:06:24;8.90;99.90
25923;DHT22;13725;51.170;4.442;2024-03-02T08:08:56;8.70;99.90
25923;DHT22;13725;51.170;4.442;2024-03-02T08:11:22;8.70;99.90
25923;DHT22;13725;51.170;4.442;2024-03-02T08:13:48;8.60;99.90
25923;DHT22;13725;51.170;4.442;2024-03-02T08:16:15;8.50;99.90
25923;DHT22;13725;51.170;4.442;2024-03-02T08:18:41;8.60;99.90
25923;DHT22;13725;51.170;4.442;2024-03-02T08:21:07;8.80;99.90
25923;DHT22;13725;51.170;4.442;2024-03-02T08:23:34;9.30;99.90
25923;DHT22;13725;51.170;4.442;2024-03-02T08:26:00;9.70;99.90
25923;DHT22;13725;51.170;4.442;2024-03-02T08:28:26;10.60;99.90
25923;DHT22;13725;51.170;4.442;2024-03-02T08:30:51;11.70;99.90
25923;DHT22;13725;51.170;4.442;2024-03-02T08:33:17;12.90;99.90
25923;DHT22;13725;51.170;4.442;2024-03-02T08:35:43;13.80;99.90
25923;DHT22;13725;51.170;4.442;2024-03-02T08:38:09;14.20;99.90
25923;DHT22;13725;51.170;4.442;2024-03-02T08:40:35;14.50;99.90
25923;DHT22;13725;51.170;4.442;2024-03-02T08:43:01;14.80;99.90
25923;DHT22;13725;51.170;4.442;2024-03-02T08:45:27;15.70;99.90
25923;DHT22;13725;51.170;4.442;2024-03-02T08:47:52;15.30;99.90
25923;DHT22;13725;51.170;4.442;2024-03-02T08:50:18;15.70;99.90
25923;DHT22;13725;51.170;4.442;2024-03-02T08:52:44;16.40;99.90
25923;DHT22;13725;51.170;4.442;2024-03-02T08:55:09;16.40;99.90
25923;DHT22;13725;51.170;4.442;2024-03-02T08:57:37;16.10;99.90
25923;DHT22;13725;51.170;4.442;2024-03-02T09:00:03;16.20;99.90
25923;DHT22;13725;51.170;4.442;2024-03-02T09:02:31;16.10;99.90
25923;DHT22;13725;51.170;4.442;2024-03-02T09:04:56;17.00;99.90
25923;DHT22;13725;51.170;4.442;2024-03-02T09:07:23;17.70;99.90
25923;DHT22;13725;51.170;4.442;2024-03-02T09:09:49;17.20;99.90
25923;DHT22;13725;51.170;4.442;2024-03-02T09:12:15;17.10;99.90
25923;DHT22;13725;51.170;4.442;2024-03-02T09:14:41;16.10;99.90
25923;DHT22;13725;51.170;4.442;2024-03-02T09:17:07;15.60;99.90
25923;DHT22;13725;51.170;4.442;2024-03-02T09:19:33;16.50;99.90
25923;DHT22;13725;51.170;4.442;2024-03-02T09:21:59;16.80;99.90
25923;DHT22;13725;51.170;4.442;2024-03-02T09:24:25;17.30;99.90
25923;DHT22;13725;51.170;4.442;2024-03-02T09:26:50;17.20;99.90
25923;DHT22;13725;51.170;4.442;2024-03-02T09:29:16;17.80;99.90
25923;DHT22;13725;51.170;4.442;2024-03-02T09:31:43;17.50;99.90
25923;DHT22;13725;51.170;4.442;2024-03-02T09:34:09;18.40;99.90
25923;DHT22;13725;51.170;4.442;2024-03-02T09:36:34;19.10;99.90
25923;DHT22;13725;51.170;4.442;2024-03-02T09:39:00;19.90;99.90
25923;DHT22;13725;51.170;4.442;2024-03-02T09:41:26;19.70;99.90
25923;DHT22;13725;51.170;4.442;2024-03-02T09:43:52;20.00;99.90
25923;DHT22;13725;51.170;4.442;2024-03-02T09:46:18;20.00;99.90
25923;DHT22;13725;51.170;4.442;2024-03-02T09:48:46;20.20;99.90
25923;DHT22;13725;51.170;4.442;2024-03-02T09:51:12;20.60;99.90
25923;DHT22;13725;51.170;4.442;2024-03-02T09:53:38;20.20;98.60
25923;DHT22;13725;51.170;4.442;2024-03-02T09:56:05;19.90;98.80
25923;DHT22;13725;51.170;4.442;2024-03-02T09:58:30;20.00;98.10
25923;DHT22;13725;51.170;4.442;2024-03-02T10:00:56;19.40;99.90
25923;DHT22;13725;51.170;4.442;2024-03-02T10:03:26;18.00;99.90
25923;DHT22;13725;51.170;4.442;2024-03-02T10:05:54;17.00;99.90
25923;DHT22;13725;51.170;4.442;2024-03-02T10:08:20;16.00;99.90
25923;DHT22;13725;51.170;4.442;2024-03-02T10:10:45;15.40;99.90
25923;DHT22;13725;51.170;4.442;2024-03-02T10:13:13;15.40;99.90
25923;DHT22;13725;51.170;4.442;2024-03-02T10:15:43;15.40;99.90
25923;DHT22;13725;51.170;4.442;2024-03-02T10:18:13;15.00;99.90
25923;DHT22;13725;51.170;4.442;2024-03-02T10:20:40;14.90;99.90
25923;DHT22;13725;51.170;4.442;2024-03-02T10:23:15;15.00;99.90
25923;DHT22;13725;51.170;4.442;2024-03-02T10:25:42;14.60;99.90
25923;DHT22;13725;51.170;4.442;2024-03-02T10:28:09;14.30;99.90
25923;DHT22;13725;51.170;4.442;2024-03-02T10:30:35;14.00;99.90
25923;DHT22;13725;51.170;4.442;2024-03-02T10:33:05;14.40;99.90
25923;DHT22;13725;51.170;4.442;2024-03-02T10:35:32;14.90;99.90
25923;DHT22;13725;51.170;4.442;2024-03-02T10:38:01;15.40;99.90
25923;DHT22;13725;51.170;4.442;2024-03-02T10:40:29;15.80;99.90
25923;DHT22;13725;51.170;4.442;2024-03-02T10:42:55;16.20;99.90
25923;DHT22;13725;51.170;4.442;2024-03-02T10:45:23;17.00;99.90
25923;DHT22;13725;51.170;4.442;2024-03-02T10:47:49;16.90;99.90
25923;DHT22;13725;51.170;4.442;2024-03-02T10:50:15;16.40;99.90
25923;DHT22;13725;51.170;4.442;2024-03-02T10:52:41;16.40;99.90
25923;DHT22;13725;51.170;4.442;2024-03-02T10:55:09;17.10;99.90
25923;DHT22;13725;51.170;4.442;2024-03-02T10:57:52;17.10;99.90
25923;DHT22;13725;51.170;4.442;2024-03-02T11:00:25;16.70;99.90
25923;DHT22;13725;51.170;4.442;2024-03-02T11:03:04;17.40;99.90
25923;DHT22;13725;51.170;4.442;2024-03-02T11:05:37;17.00;99.90
25923;DHT22;13725;51.170;4.442;2024-03-02T11:08:08;18.10;99.90
25923;DHT22;13725;51.170;4.442;2024-03-02T11:10:54;19.40;99.90
25923;DHT22;13725;51.170;4.442;2024-03-02T11:13:33;18.50;99.90
25923;DHT22;13725;51.170;4.442;2024-03-02T11:16:05;16.80;99.90
25923;DHT22;13725;51.170;4.442;2024-03-02T11:18:32;15.70;99.90
25923;DHT22;13725;51.170;4.442;2024-03-02T11:20:59;14.80;99.90
25923;DHT22;13725;51.170;4.442;2024-03-02T11:23:35;14.80;99.90
25923;DHT22;13725;51.170;4.442;2024-03-02T11:26:20;14.70;99.90
25923;DHT22;13725;51.170;4.442;2024-03-02T11:28:46;14.50;99.90
25923;DHT22;13725;51.170;4.442;2024-03-02T11:31:12;14.00;99.90
25923;DHT22;13725;51.170;4.442;2024-03-02T11:33:38;14.00;99.90
25923;DHT22;13725;51.170;4.442;2024-03-02T11:36:06;14.50;99.90
25923;DHT22;13725;51.170;4.442;2024-03-02T11:38:33;15.00;99.90
25923;DHT22;13725;51.170;4.442;2024-03-02T11:41:05;15.30;99.90
25923;DHT22;13725;51.170;4.442;2024-03-02T11:43:32;15.60;99.90
25923;DHT22;13725;51.170;4.442;2024-03-02T11:46:00;15.30;99.90
25923;DHT22;13725;51.170;4.442;2024-03-02T11:48:26;15.50;99.90
25923;DHT22;13725;51.170;4.442;2024-03-02T11:50:53;15.50;99.90
25923;DHT22;13725;51.170;4.442;2024-03-02T11:53:20;15.60;99.90
25923;DHT22;13725;51.170;4.442;2024-03-02T11:55:46;15.40;99.90
25923;DHT22;13725;51.170;4.442;2024-03-02T11:58:12;15.40;99.90
25923;DHT22;13725;51.170;4.442;2024-03-02T12:00:39;15.10;99.90
25923;DHT22;13725;51.170;4.442;2024-03-02T12:03:06;15.00;99.90
25923;DHT22;13725;51.170;4.442;2024-03-02T12:05:33;14.90;99.90
25923;DHT22;13725;51.170;4.442;2024-03-02T12:08:00;14.70;99.90
25923;DHT22;13725;51.170;4.442;2024-03-02T12:10:26;14.70;99.90
25923;DHT22;13725;51.170;4.442;2024-03-02T12:12:56;14.90;99.90
25923;DHT22;13725;51.170;4.442;2024-03-02T12:15:34;15.40;99.90
25923;DHT22;13725;51.170;4.442;2024-03-02T12:18:02;16.00;99.90
25923;DHT22;13725;51.170;4.442;2024-03-02T12:20:30;16.50;99.90
25923;DHT22;13725;51.170;4.442;2024-03-02T12:22:58;17.50;99.90
25923;DHT22;13725;51.170;4.442;2024-03-02T12:25:24;18.50;99.90
25923;DHT22;13725;51.170;4.442;2024-03-02T12:27:52;19.00;99.90
25923;DHT22;13725;51.170;4.442;2024-03-02T12:30:19;20.00;99.90
25923;DHT22;13725;51.170;4.442;2024-03-02T12:32:45;20.10;99.90
25923;DHT22;13725;51.170;4.442;2024-03-02T12:35:12;20.70;99.90
25923;DHT22;13725;51.170;4.442;2024-03-02T12:37:48;20.70;99.50
25923;DHT22;13725;51.170;4.442;2024-03-02T12:40:16;19.50;99.90
25923;DHT22;13725;51.170;4.442;2024-03-02T12:42:48;18.60;99.90
25923;DHT22;13725;51.170;4.442;2024-03-02T12:45:14;18.20;99.90
25923;DHT22;13725;51.170;4.442;2024-03-02T12:47:41;17.80;99.90
25923;DHT22;13725;51.170;4.442;2024-03-02T12:50:08;17.90;99.90
25923;DHT22;13725;51.170;4.442;2024-03-02T12:52:34;18.30;99.90
25923;DHT22;13725;51.170;4.442;2024-03-02T12:55:00;18.10;99.90
25923;DHT22;13725;51.170;4.442;2024-03-02T12:57:28;17.70;99.90
25923;DHT22;13725;51.170;4.442;2024-03-02T13:00:05;17.10;99.90
25923;DHT22;13725;51.170;4.442;2024-03-02T13:02:36;16.20;99.90
25923;DHT22;13725;51.170;4.442;2024-03-02T13:05:02;15.50;99.90
25923;DHT22;13725;51.170;4.442;2024-03-02T13:07:28;15.20;99.90
25923;DHT22;13725;51.170;4.442;2024-03-02T13:09:55;15.20;99.90
25923;DHT22;13725;51.170;4.442;2024-03-02T13:12:23;15.20;99.90
25923;DHT22;13725;51.170;4.442;2024-03-02T13:14:51;15.10;99.90
25923;DHT22;13725;51.170;4.442;2024-03-02T13:17:20;14.90;99.90
25923;DHT22;13725;51.170;4.442;2024-03-02T13:19:56;14.90;99.90
25923;DHT22;13725;51.170;4.442;2024-03-02T13:22:23;15.20;99.90
25923;DHT22;13725;51.170;4.442;2024-03-02T13:24:49;15.30;99.90
25923;DHT22;13725;51.170;4.442;2024-03-02T13:27:15;15.10;99.90
25923;DHT22;13725;51.170;4.442;2024-03-02T13:29:42;14.80;99.90
25923;DHT22;13725;51.170;4.442;2024-03-02T13:32:08;14.70;99.90
25923;DHT22;13725;51.170;4.442;2024-03-02T13:34:35;14.50;99.90
25923;DHT22;13725;51.170;4.442;2024-03-02T13:37:03;14.40;99.90
25923;DHT22;13725;51.170;4.442;2024-03-02T13:39:30;14.20;99.90
25923;DHT22;13725;51.170;4.442;2024-03-02T13:41:58;14.00;99.90
25923;DHT22;13725;51.170;4.442;2024-03-02T13:44:30;14.10;99.90
25923;DHT22;13725;51.170;4.442;2024-03-02T13:46:56;14.10;99.90
25923;DHT22;13725;51.170;4.442;2024-03-02T13:49:22;14.10;99.90
25923;DHT22;13725;51.170;4.442;2024-03-02T13:51:48;14.00;99.90
25923;DHT22;13725;51.170;4.442;2024-03-02T13:54:14;14.00;99.90
25923;DHT22;13725;51.170;4.442;2024-03-02T13:56:40;13.80;99.90
25923;DHT22;13725;51.170;4.442;2024-03-02T13:59:07;13.80;99.90
25923;DHT22;13725;51.170;4.442;2024-03-02T14:01:33;13.70;99.90
25923;DHT22;13725;51.170;4.442;2024-03-02T14:03:59;13.70;99.90
25923;DHT22;13725;51.170;4.442;2024-03-02T14:06:25;13.80;99.90
25923;DHT22;13725;51.170;4.442;2024-03-02T14:08:53;13.80;99.90
25923;DHT22;13725;51.170;4.442;2024-03-02T14:11:19;14.00;99.90
25923;DHT22;13725;51.170;4.442;2024-03-02T14:13:45;14.10;99.90
25923;DHT22;13725;51.170;4.442;2024-03-02T14:16:15;14.20;99.90
25923;DHT22;13725;51.170;4.442;2024-03-02T14:18:41;14.30;99.90
25923;DHT22;13725;51.170;4.442;2024-03-02T14:21:08;14.20;99.90
25923;DHT22;13725;51.170;4.442;2024-03-02T14:23:33;14.20;99.90
25923;DHT22;13725;51.170;4.442;2024-03-02T14:25:59;14.10;99.90
25923;DHT22;13725;51.170;4.442;2024-03-02T14:28:25;14.20;99.90
25923;DHT22;13725;51.170;4.442;2024-03-02T14:30:51;14.10;99.90
25923;DHT22;13725;51.170;4.442;2024-03-02T14:33:16;13.90;99.90
25923;DHT22;13725;51.170;4.442;2024-03-02T14:35:44;13.90;99.90
25923;DHT22;13725;51.170;4.442;2024-03-02T14:38:11;14.00;99.90
25923;DHT22;13725;51.170;4.442;2024-03-02T14:40:37;14.20;99.90
25923;DHT22;13725;51.170;4.442;2024-03-02T14:43:02;14.40;99.90
25923;DHT22;13725;51.170;4.442;2024-03-02T14:45:29;14.50;99.90
25923;DHT22;13725;51.170;4.442;2024-03-02T14:47:55;14.50;99.90
25923;DHT22;13725;51.170;4.442;2024-03-02T14:50:21;14.50;99.90
25923;DHT22;13725;51.170;4.442;2024-03-02T14:52:47;14.40;99.90
25923;DHT22;13725;51.170;4.442;2024-03-02T14:55:13;14.50;99.90
25923;DHT22;13725;51.170;4.442;2024-03-02T14:57:39;14.50;99.90
25923;DHT22;13725;51.170;4.442;2024-03-02T15:00:05;14.40;99.90
25923;DHT22;13725;51.170;4.442;2024-03-02T15:02:33;14.30;99.90
25923;DHT22;13725;51.170;4.442;2024-03-02T15:04:59;14.10;99.90
25923;DHT22;13725;51.170;4.442;2024-03-02T15:07:25;14.00;99.90
25923;DHT22;13725;51.170;4.442;2024-03-02T15:09:51;13.90;99.90
25923;DHT22;13725;51.170;4.442;2024-03-02T15:12:17;13.90;99.90
25923;DHT22;13725;51.170;4.442;2024-03-02T15:14:43;13.80;99.90
25923;DHT22;13725;51.170;4.442;2024-03-02T15:17:16;13.70;99.90
25923;DHT22;13725;51.170;4.442;2024-03-02T15:19:43;13.70;99.90
25923;DHT22;13725;51.170;4.442;2024-03-02T15:22:09;13.60;99.90
25923;DHT22;13725;51.170;4.442;2024-03-02T15:24:35;13.60;99.90
25923;DHT22;13725;51.170;4.442;2024-03-02T15:27:01;13.60;99.90
25923;DHT22;13725;51.170;4.442;2024-03-02T15:29:31;13.70;99.90
25923;DHT22;13725;51.170;4.442;2024-03-02T15:31:58;13.70;99.90
25923;DHT22;13725;51.170;4.442;2024-03-02T15:34:23;13.80;99.90
25923;DHT22;13725;51.170;4.442;2024-03-02T15:36:49;13.70;99.90
25923;DHT22;13725;51.170;4.442;2024-03-02T15:39:16;13.70;99.90
25923;DHT22;13725;51.170;4.442;2024-03-02T15:41:44;13.70;99.90